sensor_id;sensor_type;location;lat;lon;timestamp;P1;durP1;ratioP1;P2;durP2;ratioP2
34783;SDS011;20998;51.388;7.032;2024-02-16T00:01:31;1.30;;;0.77;;
34783;SDS011;20998;51.388;7.032;2024-02-16T00:03:57;1.63;;;0.90;;
34783;SDS011;20998;51.388;7.032;2024-02-16T00:06:23;2.47;;;0.97;;
34783;SDS011;20998;51.388;7.032;2024-02-16T00:08:49;4.17;;;1.13;;
34783;SDS011;20998;51.388;7.032;2024-02-16T00:11:15;4.03;;;1.27;;
34783;SDS011;20998;51.388;7.032;2024-02-16T00:13:41;2.33;;;0.90;;
34783;SDS011;20998;51.388;7.032;2024-02-16T00:16:07;1.50;;;0.80;;
34783;SDS011;20998;51.388;7.032;2024-02-16T00:18:33;1.47;;;1.13;;
34783;SDS011;20998;51.388;7.032;2024-02-16T00:20:59;1.00;;;0.90;;
34783;SDS011;20998;51.388;7.032;2024-02-16T00:23:26;0.97;;;0.90;;
34783;SDS011;20998;51.388;7.032;2024-02-16T00:25:52;3.40;;;1.30;;
34783;SDS011;20998;51.388;7.032;2024-02-16T00:28:18;1.50;;;1.03;;
34783;SDS011;20998;51.388;7.032;2024-02-16T00:30:44;2.80;;;1.50;;
34783;SDS011;20998;51.388;7.032;2024-02-16T00:33:12;2.97;;;1.10;;
34783;SDS011;20998;51.388;7.032;2024-02-16T00:35:38;3.00;;;1.10;;
34783;SDS011;20998;51.388;7.032;2024-02-16T00:38:03;4.70;;;1.00;;
34783;SDS011;20998;51.388;7.032;2024-02-16T00:40:29;3.07;;;1.40;;
34783;SDS011;20998;51.388;7.032;2024-02-16T00:42:55;1.50;;;1.10;;
34783;SDS011;20998;51.388;7.032;2024-02-16T00:45:21;0.97;;;0.93;;
34783;SDS011;20998;51.388;7.032;2024-02-16T00:47:47;2.50;;;0.87;;
34783;SDS011;20998;51.388;7.032;2024-02-16T00:50:13;1.60;;;1.07;;
34783;SDS011;20998;51.388;7.032;2024-02-16T00:52:40;1.13;;;0.93;;
34783;SDS011;20998;51.388;7.032;2024-02-16T00:55:07;2.43;;;1.20;;
34783;SDS011;20998;51.388;7.032;2024-02-16T00:57:33;2.40;;;0.97;;
34783;SDS011;20998;51.388;7.032;2024-02-16T00:59:59;1.53;;;0.90;;
34783;SDS011;20998;51.388;7.032;2024-02-16T01:02:25;2.67;;;1.33;;
34783;SDS011;20998;51.388;7.032;2024-02-16T01:04:51;4.53;;;1.13;;
34783;SDS011;20998;51.388;7.032;2024-02-16T01:07:17;0.87;;;0.80;;
34783;SDS011;20998;51.388;7.032;2024-02-16T01:09:43;2.10;;;1.57;;
34783;SDS011;20998;51.388;7.032;2024-02-16T01:12:09;6.03;;;0.87;;
34783;SDS011;20998;51.388;7.032;2024-02-16T01:14:36;0.83;;;0.83;;
34783;SDS011;20998;51.388;7.032;2024-02-16T01:17:02;2.53;;;0.93;;
34783;SDS011;20998;51.388;7.032;2024-02-16T01:19:28;1.90;;;0.93;;
34783;SDS011;20998;51.388;7.032;2024-02-16T01:21:55;1.60;;;1.00;;
34783;SDS011;20998;51.388;7.032;2024-02-16T01:24:23;2.07;;;0.90;;
34783;SDS011;20998;51.388;7.032;2024-02-16T01:26:48;13.10;;;1.07;;
34783;SDS011;20998;51.388;7.032;2024-02-16T01:29:14;0.90;;;0.90;;
34783;SDS011;20998;51.388;7.032;2024-02-16T01:31:40;4.63;;;1.17;;
34783;SDS011;20998;51.388;7.032;2024-02-16T01:34:06;3.73;;;0.83;;
34783;SDS011;20998;51.388;7.032;2024-02-16T01:36:32;5.97;;;1.33;;
34783;SDS011;20998;51.388;7.032;2024-02-16T01:38:58;3.33;;;1.10;;
34783;SDS011;20998;51.388;7.032;2024-02-16T01:41:24;3.13;;;1.10;;
34783;SDS011;20998;51.388;7.032;2024-02-16T01:43:53;1.47;;;0.70;;
34783;SDS011;20998;51.388;7.032;2024-02-16T01:46:19;1.70;;;0.90;;
34783;SDS011;20998;51.388;7.032;2024-02-16T01:48:46;6.13;;;1.50;;
34783;SDS011;20998;51.388;7.032;2024-02-16T01:51:12;1.67;;;0.90;;
34783;SDS011;20998;51.388;7.032;2024-02-16T01:53:39;1.30;;;0.93;;
34783;SDS011;20998;51.388;7.032;2024-02-16T01:56:05;2.10;;;1.27;;
34783;SDS011;20998;51.388;7.032;2024-02-16T01:58:32;1.00;;;0.90;;
34783;SDS011;20998;51.388;7.032;2024-02-16T02:00:59;4.80;;;1.27;;
34783;SDS011;20998;51.388;7.032;2024-02-16T02:03:24;1.33;;;1.00;;
34783;SDS011;20998;51.388;7.032;2024-02-16T02:05:51;1.50;;;1.00;;
34783;SDS011;20998;51.388;7.032;2024-02-16T02:08:19;2.27;;;1.33;;
34783;SDS011;20998;51.388;7.032;2024-02-16T02:10:45;3.80;;;0.77;;
34783;SDS011;20998;51.388;7.032;2024-02-16T02:13:11;2.77;;;1.07;;
34783;SDS011;20998;51.388;7.032;2024-02-16T02:15:36;1.73;;;0.93;;
34783;SDS011;20998;51.388;7.032;2024-02-16T02:18:02;1.80;;;1.10;;
34783;SDS011;20998;51.388;7.032;2024-02-16T02:20:29;0.90;;;0.80;;
34783;SDS011;20998;51.388;7.032;2024-02-16T02:22:55;0.93;;;0.73;;
34783;SDS011;20998;51.388;7.032;2024-02-16T02:25:21;3.33;;;0.70;;
34783;SDS011;20998;51.388;7.032;2024-02-16T02:27:47;1.37;;;0.90;;
34783;SDS011;20998;51.388;7.032;2024-02-16T02:30:13;1.80;;;0.93;;
34783;SDS011;20998;51.388;7.032;2024-02-16T02:32:39;2.13;;;0.97;;
34783;SDS011;20998;51.388;7.032;2024-02-16T02:35:07;1.73;;;0.90;;
34783;SDS011;20998;51.388;7.032;2024-02-16T02:37:33;1.20;;;0.90;;
34783;SDS011;20998;51.388;7.032;2024-02-16T02:39:59;1.80;;;0.90;;
34783;SDS011;20998;51.388;7.032;2024-02-16T02:42:25;2.43;;;0.93;;
34783;SDS011;20998;51.388;7.032;2024-02-16T02:44:53;1.10;;;0.90;;
34783;SDS011;20998;51.388;7.032;2024-02-16T02:47:19;6.47;;;1.40;;
34783;SDS011;20998;51.388;7.032;2024-02-16T02:49:45;2.03;;;1.30;;
34783;SDS011;20998;51.388;7.032;2024-02-16T02:52:11;1.07;;;0.90;;
34783;SDS011;20998;51.388;7.032;2024-02-16T02:54:37;2.50;;;1.07;;
34783;SDS011;20998;51.388;7.032;2024-02-16T02:57:03;2.90;;;1.10;;
34783;SDS011;20998;51.388;7.032;2024-02-16T02:59:29;2.73;;;1.30;;
34783;SDS011;20998;51.388;7.032;2024-02-16T03:01:55;0.93;;;0.70;;
34783;SDS011;20998;51.388;7.032;2024-02-16T03:04:21;2.27;;;0.90;;
34783;SDS011;20998;51.388;7.032;2024-02-16T03:06:47;1.07;;;0.80;;
34783;SDS011;20998;51.388;7.032;2024-02-16T03:09:13;1.27;;;0.97;;
34783;SDS011;20998;51.388;7.032;2024-02-16T03:11:39;2.40;;;1.07;;
34783;SDS011;20998;51.388;7.032;2024-02-16T03:14:05;1.63;;;1.03;;
34783;SDS011;20998;51.388;7.032;2024-02-16T03:16:31;1.00;;;0.90;;
34783;SDS011;20998;51.388;7.032;2024-02-16T03:18:57;2.50;;;1.00;;
34783;SDS011;20998;51.388;7.032;2024-02-16T03:21:24;4.37;;;1.23;;
34783;SDS011;20998;51.388;7.032;2024-02-16T03:23:50;2.40;;;1.00;;
34783;SDS011;20998;51.388;7.032;2024-02-16T03:26:16;1.03;;;0.90;;
34783;SDS011;20998;51.388;7.032;2024-02-16T03:28:43;3.20;;;1.13;;
34783;SDS011;20998;51.388;7.032;2024-02-16T03:31:19;3.63;;;1.00;;
34783;SDS011;20998;51.388;7.032;2024-02-16T03:33:45;1.37;;;0.80;;
34783;SDS011;20998;51.388;7.032;2024-02-16T03:36:12;1.30;;;1.00;;
34783;SDS011;20998;51.388;7.032;2024-02-16T03:38:42;1.10;;;1.00;;
34783;SDS011;20998;51.388;7.032;2024-02-16T03:41:12;0.70;;;0.70;;
34783;SDS011;20998;51.388;7.032;2024-02-16T03:43:39;4.90;;;0.67;;
34783;SDS011;20998;51.388;7.032;2024-02-16T03:46:05;1.07;;;0.80;;
34783;SDS011;20998;51.388;7.032;2024-02-16T03:48:31;1.80;;;1.40;;
34783;SDS011;20998;51.388;7.032;2024-02-16T03:50:57;1.07;;;0.90;;
34783;SDS011;20998;51.388;7.032;2024-02-16T03:53:23;0.80;;;0.80;;
34783;SDS011;20998;51.388;7.032;2024-02-16T03:55:49;1.37;;;0.83;;
34783;SDS011;20998;51.388;7.032;2024-02-16T03:58:15;1.33;;;0.80;;
34783;SDS011;20998;51.388;7.032;2024-02-16T04:00:41;1.27;;;0.77;;
34783;SDS011;20998;51.388;7.032;2024-02-16T04:03:07;0.80;;;0.80;;
34783;SDS011;20998;51.388;7.032;2024-02-16T04:05:34;2.83;;;1.03;;
34783;SDS011;20998;51.388;7.032;2024-02-16T04:08:00;1.40;;;0.90;;
34783;SDS011;20998;51.388;7.032;2024-02-16T04:10:28;1.40;;;0.80;;
34783;SDS011;20998;51.388;7.032;2024-02-16T04:12:54;2.40;;;1.00;;
34783;SDS011;20998;51.388;7.032;2024-02-16T04:15:20;6.77;;;1.23;;
34783;SDS011;20998;51.388;7.032;2024-02-16T04:17:47;0.87;;;0.80;;
34783;SDS011;20998;51.388;7.032;2024-02-16T04:20:15;3.17;;;1.10;;
34783;SDS011;20998;51.388;7.032;2024-02-16T04:22:41;1.73;;;1.07;;
34783;SDS011;20998;51.388;7.032;2024-02-16T04:25:07;2.87;;;0.90;;
34783;SDS011;20998;51.388;7.032;2024-02-16T04:27:34;1.70;;;1.13;;
34783;SDS011;20998;51.388;7.032;2024-02-16T04:30:00;1.17;;;1.07;;
34783;SDS011;20998;51.388;7.032;2024-02-16T04:32:26;0.70;;;0.70;;
34783;SDS011;20998;51.388;7.032;2024-02-16T04:34:52;1.57;;;1.00;;
34783;SDS011;20998;51.388;7.032;2024-02-16T04:37:18;1.97;;;1.00;;
34783;SDS011;20998;51.388;7.032;2024-02-16T04:39:44;1.23;;;1.00;;
34783;SDS011;20998;51.388;7.032;2024-02-16T04:42:10;1.87;;;1.13;;
34783;SDS011;20998;51.388;7.032;2024-02-16T04:44:37;3.67;;;1.23;;
34783;SDS011;20998;51.388;7.032;2024-02-16T04:47:05;1.47;;;0.97;;
34783;SDS011;20998;51.388;7.032;2024-02-16T04:49:31;1.17;;;0.93;;
34783;SDS011;20998;51.388;7.032;2024-02-16T04:51:57;1.80;;;0.93;;
34783;SDS011;20998;51.388;7.032;2024-02-16T04:54:23;1.27;;;1.03;;
34783;SDS011;20998;51.388;7.032;2024-02-16T04:56:49;2.47;;;1.20;;
34783;SDS011;20998;51.388;7.032;2024-02-16T04:59:15;3.20;;;1.40;;
34783;SDS011;20998;51.388;7.032;2024-02-16T05:01:42;0.80;;;0.80;;
34783;SDS011;20998;51.388;7.032;2024-02-16T05:04:09;2.60;;;1.03;;
34783;SDS011;20998;51.388;7.032;2024-02-16T05:06:40;1.73;;;1.07;;
34783;SDS011;20998;51.388;7.032;2024-02-16T05:09:06;1.07;;;0.90;;
34783;SDS011;20998;51.388;7.032;2024-02-16T05:11:32;1.60;;;1.13;;
34783;SDS011;20998;51.388;7.032;2024-02-16T05:13:58;0.80;;;0.80;;
34783;SDS011;20998;51.388;7.032;2024-02-16T05:16:24;1.27;;;1.07;;
34783;SDS011;20998;51.388;7.032;2024-02-16T05:18:50;4.87;;;1.47;;
34783;SDS011;20998;51.388;7.032;2024-02-16T05:21:16;3.17;;;1.23;;
34783;SDS011;20998;51.388;7.032;2024-02-16T05:23:42;1.17;;;1.07;;
34783;SDS011;20998;51.388;7.032;2024-02-16T05:26:08;2.40;;;1.00;;
34783;SDS011;20998;51.388;7.032;2024-02-16T05:28:34;1.03;;;0.93;;
34783;SDS011;20998;51.388;7.032;2024-02-16T05:31:03;1.27;;;1.10;;
34783;SDS011;20998;51.388;7.032;2024-02-16T05:33:47;2.83;;;1.30;;
34783;SDS011;20998;51.388;7.032;2024-02-16T05:36:20;3.30;;;1.00;;
34783;SDS011;20998;51.388;7.032;2024-02-16T05:38:49;2.33;;;1.13;;
34783;SDS011;20998;51.388;7.032;2024-02-16T05:41:15;2.83;;;1.30;;
34783;SDS011;20998;51.388;7.032;2024-02-16T05:43:43;1.87;;;1.20;;
34783;SDS011;20998;51.388;7.032;2024-02-16T05:46:13;3.33;;;1.40;;
34783;SDS011;20998;51.388;7.032;2024-02-16T05:48:42;2.17;;;1.23;;
34783;SDS011;20998;51.388;7.032;2024-02-16T05:51:08;1.10;;;1.00;;
34783;SDS011;20998;51.388;7.032;2024-02-16T05:53:37;2.73;;;1.00;;
34783;SDS011;20998;51.388;7.032;2024-02-16T05:56:03;2.00;;;1.17;;
34783;SDS011;20998;51.388;7.032;2024-02-16T05:58:29;0.93;;;0.87;;
34783;SDS011;20998;51.388;7.032;2024-02-16T06:00:55;2.40;;;1.30;;
34783;SDS011;20998;51.388;7.032;2024-02-16T06:03:22;2.13;;;1.37;;
34783;SDS011;20998;51.388;7.032;2024-02-16T06:05:48;2.30;;;1.20;;
34783;SDS011;20998;51.388;7.032;2024-02-16T06:08:14;3.80;;;0.87;;
34783;SDS011;20998;51.388;7.032;2024-02-16T06:10:42;1.43;;;1.10;;
34783;SDS011;20998;51.388;7.032;2024-02-16T06:13:08;1.80;;;1.00;;
34783;SDS011;20998;51.388;7.032;2024-02-16T06:15:34;1.40;;;1.23;;
34783;SDS011;20998;51.388;7.032;2024-02-16T06:18:02;1.80;;;1.40;;
34783;SDS011;20998;51.388;7.032;2024-02-16T06:20:28;2.40;;;1.40;;
34783;SDS011;20998;51.388;7.032;2024-02-16T06:22:54;1.57;;;1.00;;
34783;SDS011;20998;51.388;7.032;2024-02-16T06:25:20;9.40;;;1.10;;
34783;SDS011;20998;51.388;7.032;2024-02-16T06:27:46;1.53;;;1.37;;
34783;SDS011;20998;51.388;7.032;2024-02-16T06:30:12;1.03;;;0.90;;
34783;SDS011;20998;51.388;7.032;2024-02-16T06:32:38;1.67;;;1.23;;
34783;SDS011;20998;51.388;7.032;2024-02-16T06:35:05;1.87;;;1.30;;
34783;SDS011;20998;51.388;7.032;2024-02-16T06:37:32;4.23;;;1.43;;
34783;SDS011;20998;51.388;7.032;2024-02-16T06:39:58;1.30;;;1.10;;
34783;SDS011;20998;51.388;7.032;2024-02-16T06:42:24;4.40;;;1.50;;
34783;SDS011;20998;51.388;7.032;2024-02-16T06:44:50;1.40;;;1.20;;
34783;SDS011;20998;51.388;7.032;2024-02-16T06:47:16;1.60;;;1.17;;
34783;SDS011;20998;51.388;7.032;2024-02-16T06:49:42;1.20;;;0.87;;
34783;SDS011;20998;51.388;7.032;2024-02-16T06:52:08;3.63;;;1.47;;
34783;SDS011;20998;51.388;7.032;2024-02-16T06:54:34;5.90;;;1.23;;
34783;SDS011;20998;51.388;7.032;2024-02-16T06:57:00;4.63;;;1.50;;
34783;SDS011;20998;51.388;7.032;2024-02-16T06:59:27;2.07;;;1.07;;
34783;SDS011;20998;51.388;7.032;2024-02-16T07:01:53;2.13;;;1.30;;
34783;SDS011;20998;51.388;7.032;2024-02-16T07:04:19;1.67;;;1.17;;
34783;SDS011;20998;51.388;7.032;2024-02-16T07:06:45;1.73;;;1.47;;
34783;SDS011;20998;51.388;7.032;2024-02-16T07:09:11;3.10;;;0.90;;
34783;SDS011;20998;51.388;7.032;2024-02-16T07:11:40;2.27;;;1.40;;
34783;SDS011;20998;51.388;7.032;2024-02-16T07:14:06;5.67;;;1.13;;
34783;SDS011;20998;51.388;7.032;2024-02-16T07:16:33;2.27;;;1.30;;
34783;SDS011;20998;51.388;7.032;2024-02-16T07:18:59;3.43;;;1.73;;
34783;SDS011;20998;51.388;7.032;2024-02-16T07:21:25;1.93;;;1.53;;
34783;SDS011;20998;51.388;7.032;2024-02-16T07:23:52;2.43;;;1.50;;
34783;SDS011;20998;51.388;7.032;2024-02-16T07:26:17;4.03;;;1.57;;
34783;SDS011;20998;51.388;7.032;2024-02-16T07:28:43;1.90;;;1.20;;
34783;SDS011;20998;51.388;7.032;2024-02-16T07:31:09;2.63;;;1.60;;
34783;SDS011;20998;51.388;7.032;2024-02-16T07:33:36;1.30;;;1.00;;
34783;SDS011;20998;51.388;7.032;2024-02-16T07:36:02;5.77;;;1.00;;
34783;SDS011;20998;51.388;7.032;2024-02-16T07:38:29;13.73;;;1.63;;
34783;SDS011;20998;51.388;7.032;2024-02-16T07:40:55;5.83;;;1.27;;
34783;SDS011;20998;51.388;7.032;2024-02-16T07:43:21;2.07;;;1.30;;
34783;SDS011;20998;51.388;7.032;2024-02-16T07:45:49;3.93;;;1.40;;
34783;SDS011;20998;51.388;7.032;2024-02-16T07:48:15;0.97;;;0.97;;
34783;SDS011;20998;51.388;7.032;2024-02-16T07:50:41;2.57;;;1.40;;
34783;SDS011;20998;51.388;7.032;2024-02-16T07:53:07;2.10;;;1.23;;
34783;SDS011;20998;51.388;7.032;2024-02-16T07:55:34;1.27;;;1.17;;
34783;SDS011;20998;51.388;7.032;2024-02-16T07:58:00;2.33;;;1.47;;
34783;SDS011;20998;51.388;7.032;2024-02-16T08:00:27;0.87;;;0.87;;
34783;SDS011;20998;51.388;7.032;2024-02-16T08:02:53;1.30;;;1.07;;
34783;SDS011;20998;51.388;7.032;2024-02-16T08:05:20;1.40;;;1.13;;
34783;SDS011;20998;51.388;7.032;2024-02-16T08:07:47;6.17;;;1.43;;
34783;SDS011;20998;51.388;7.032;2024-02-16T08:10:13;9.00;;;1.77;;
34783;SDS011;20998;51.388;7.032;2024-02-16T08:12:40;1.13;;;1.00;;
34783;SDS011;20998;51.388;7.032;2024-02-16T08:15:06;2.20;;;1.30;;
34783;SDS011;20998;51.388;7.032;2024-02-16T08:17:35;7.07;;;1.13;;
34783;SDS011;20998;51.388;7.032;2024-02-16T08:20:01;1.63;;;1.10;;
34783;SDS011;20998;51.388;7.032;2024-02-16T08:22:27;2.20;;;1.10;;
34783;SDS011;20998;51.388;7.032;2024-02-16T08:24:53;3.23;;;1.10;;
34783;SDS011;20998;51.388;7.032;2024-02-16T08:27:19;1.70;;;1.20;;
34783;SDS011;20998;51.388;7.032;2024-02-16T08:29:46;2.03;;;1.20;;
34783;SDS011;20998;51.388;7.032;2024-02-16T08:32:12;1.47;;;0.80;;
34783;SDS011;20998;51.388;7.032;2024-02-16T08:34:38;2.43;;;1.00;;
34783;SDS011;20998;51.388;7.032;2024-02-16T08:37:04;6.73;;;1.67;;
34783;SDS011;20998;51.388;7.032;2024-02-16T08:39:31;2.07;;;1.23;;
34783;SDS011;20998;51.388;7.032;2024-02-16T08:41:57;5.13;;;1.70;;
34783;SDS011;20998;51.388;7.032;2024-02-16T08:44:23;3.10;;;1.57;;
34783;SDS011;20998;51.388;7.032;2024-02-16T08:46:49;3.60;;;1.47;;
34783;SDS011;20998;51.388;7.032;2024-02-16T08:49:15;3.33;;;1.50;;
34783;SDS011;20998;51.388;7.032;2024-02-16T08:51:42;1.97;;;1.57;;
34783;SDS011;20998;51.388;7.032;2024-02-16T08:54:08;2.97;;;1.57;;
34783;SDS011;20998;51.388;7.032;2024-02-16T08:56:34;4.23;;;1.77;;
34783;SDS011;20998;51.388;7.032;2024-02-16T08:59:03;3.93;;;1.53;;
34783;SDS011;20998;51.388;7.032;2024-02-16T09:01:32;2.60;;;1.30;;
34783;SDS011;20998;51.388;7.032;2024-02-16T09:04:02;2.20;;;1.20;;
34783;SDS011;20998;51.388;7.032;2024-02-16T09:06:28;1.20;;;1.00;;
34783;SDS011;20998;51.388;7.032;2024-02-16T09:08:54;3.80;;;1.90;;
34783;SDS011;20998;51.388;7.032;2024-02-16T09:11:20;1.57;;;1.17;;
34783;SDS011;20998;51.388;7.032;2024-02-16T09:13:47;3.47;;;1.60;;
34783;SDS011;20998;51.388;7.032;2024-02-16T09:16:13;3.20;;;1.40;;
34783;SDS011;20998;51.388;7.032;2024-02-16T09:18:38;6.43;;;1.73;;
34783;SDS011;20998;51.388;7.032;2024-02-16T09:21:05;1.87;;;1.30;;
34783;SDS011;20998;51.388;7.032;2024-02-16T09:23:35;1.40;;;1.10;;
34783;SDS011;20998;51.388;7.032;2024-02-16T09:26:01;3.97;;;1.33;;
34783;SDS011;20998;51.388;7.032;2024-02-16T09:28:27;3.20;;;1.40;;
34783;SDS011;20998;51.388;7.032;2024-02-16T09:30:56;2.37;;;1.70;;
34783;SDS011;20998;51.388;7.032;2024-02-16T09:33:22;1.00;;;0.90;;
34783;SDS011;20998;51.388;7.032;2024-02-16T09:35:49;1.63;;;1.40;;
34783;SDS011;20998;51.388;7.032;2024-02-16T09:38:15;6.23;;;1.77;;
34783;SDS011;20998;51.388;7.032;2024-02-16T09:40:41;2.90;;;1.40;;
34783;SDS011;20998;51.388;7.032;2024-02-16T09:43:07;1.50;;;1.13;;
34783;SDS011;20998;51.388;7.032;2024-02-16T09:45:33;2.13;;;1.50;;
34783;SDS011;20998;51.388;7.032;2024-02-16T09:47:59;3.67;;;1.93;;
34783;SDS011;20998;51.388;7.032;2024-02-16T09:50:25;6.93;;;2.40;;
34783;SDS011;20998;51.388;7.032;2024-02-16T09:52:54;1.53;;;1.10;;
34783;SDS011;20998;51.388;7.032;2024-02-16T09:55:20;2.20;;;1.47;;
34783;SDS011;20998;51.388;7.032;2024-02-16T09:57:47;8.00;;;1.73;;
34783;SDS011;20998;51.388;7.032;2024-02-16T10:00:13;1.90;;;1.40;;
34783;SDS011;20998;51.388;7.032;2024-02-16T10:02:43;5.93;;;1.40;;
34783;SDS011;20998;51.388;7.032;2024-02-16T10:05:16;2.17;;;1.77;;
34783;SDS011;20998;51.388;7.032;2024-02-16T10:07:42;2.67;;;1.30;;
34783;SDS011;20998;51.388;7.032;2024-02-16T10:10:27;1.20;;;1.07;;
34783;SDS011;20998;51.388;7.032;2024-02-16T10:15:31;3.47;;;1.50;;
34783;SDS011;20998;51.388;7.032;2024-02-16T10:18:04;2.10;;;1.70;;
34783;SDS011;20998;51.388;7.032;2024-02-16T10:20:34;2.10;;;1.17;;
34783;SDS011;20998;51.388;7.032;2024-02-16T10:23:09;2.43;;;1.60;;
34783;SDS011;20998;51.388;7.032;2024-02-16T10:25:36;3.83;;;1.43;;
34783;SDS011;20998;51.388;7.032;2024-02-16T10:28:04;4.53;;;1.60;;
34783;SDS011;20998;51.388;7.032;2024-02-16T10:30:37;3.23;;;1.53;;
34783;SDS011;20998;51.388;7.032;2024-02-16T10:33:07;1.97;;;1.57;;
34783;SDS011;20998;51.388;7.032;2024-02-16T10:35:35;4.17;;;1.50;;
34783;SDS011;20998;51.388;7.032;2024-02-16T10:38:02;4.60;;;1.47;;
34783;SDS011;20998;51.388;7.032;2024-02-16T10:40:38;3.70;;;2.10;;
34783;SDS011;20998;51.388;7.032;2024-02-16T10:43:04;1.50;;;1.30;;
34783;SDS011;20998;51.388;7.032;2024-02-16T10:45:34;5.77;;;1.30;;
34783;SDS011;20998;51.388;7.032;2024-02-16T10:48:04;2.30;;;1.10;;
34783;SDS011;20998;51.388;7.032;2024-02-16T10:50:31;3.27;;;1.57;;
34783;SDS011;20998;51.388;7.032;2024-02-16T10:53:00;4.80;;;1.97;;
34783;SDS011;20998;51.388;7.032;2024-02-16T10:55:36;3.13;;;1.43;;
34783;SDS011;20998;51.388;7.032;2024-02-16T10:58:03;6.43;;;2.17;;
34783;SDS011;20998;51.388;7.032;2024-02-16T11:00:29;2.73;;;1.70;;
34783;SDS011;20998;51.388;7.032;2024-02-16T11:02:56;4.03;;;1.33;;
34783;SDS011;20998;51.388;7.032;2024-02-16T11:05:33;2.43;;;1.20;;
34783;SDS011;20998;51.388;7.032;2024-02-16T11:08:12;3.17;;;1.60;;
34783;SDS011;20998;51.388;7.032;2024-02-16T11:10:39;4.10;;;1.53;;
34783;SDS011;20998;51.388;7.032;2024-02-16T11:13:05;4.93;;;1.60;;
34783;SDS011;20998;51.388;7.032;2024-02-16T11:15:33;4.70;;;1.43;;
34783;SDS011;20998;51.388;7.032;2024-02-16T11:18:01;3.17;;;1.37;;
34783;SDS011;20998;51.388;7.032;2024-02-16T11:20:27;5.07;;;1.53;;
34783;SDS011;20998;51.388;7.032;2024-02-16T11:22:53;10.67;;;1.67;;
34783;SDS011;20998;51.388;7.032;2024-02-16T11:25:30;4.47;;;1.87;;
34783;SDS011;20998;51.388;7.032;2024-02-16T11:27:56;1.40;;;1.30;;
34783;SDS011;20998;51.388;7.032;2024-02-16T11:30:23;2.50;;;1.60;;
34783;SDS011;20998;51.388;7.032;2024-02-16T11:32:49;2.83;;;1.60;;
34783;SDS011;20998;51.388;7.032;2024-02-16T11:35:16;4.87;;;1.77;;
34783;SDS011;20998;51.388;7.032;2024-02-16T11:37:42;3.77;;;2.00;;
34783;SDS011;20998;51.388;7.032;2024-02-16T11:40:13;3.27;;;1.60;;
34783;SDS011;20998;51.388;7.032;2024-02-16T11:42:39;4.50;;;1.60;;
34783;SDS011;20998;51.388;7.032;2024-02-16T11:45:09;3.47;;;1.60;;
34783;SDS011;20998;51.388;7.032;2024-02-16T11:47:37;4.43;;;1.67;;
34783;SDS011;20998;51.388;7.032;2024-02-16T11:50:07;4.10;;;1.77;;
34783;SDS011;20998;51.388;7.032;2024-02-16T11:52:39;3.87;;;1.80;;
34783;SDS011;20998;51.388;7.032;2024-02-16T11:55:07;2.37;;;1.53;;
34783;SDS011;20998;51.388;7.032;2024-02-16T11:57:33;6.83;;;1.67;;
34783;SDS011;20998;51.388;7.032;2024-02-16T12:00:00;4.50;;;1.50;;
34783;SDS011;20998;51.388;7.032;2024-02-16T12:02:31;5.33;;;2.23;;
34783;SDS011;20998;51.388;7.032;2024-02-16T12:05:00;5.87;;;1.83;;
34783;SDS011;20998;51.388;7.032;2024-02-16T12:07:26;2.17;;;1.60;;
34783;SDS011;20998;51.388;7.032;2024-02-16T12:09:56;4.43;;;1.83;;
34783;SDS011;20998;51.388;7.032;2024-02-16T12:12:23;2.90;;;1.70;;
34783;SDS011;20998;51.388;7.032;2024-02-16T12:14:49;4.90;;;1.93;;
34783;SDS011;20998;51.388;7.032;2024-02-16T12:17:15;5.27;;;2.20;;
34783;SDS011;20998;51.388;7.032;2024-02-16T12:19:44;1.93;;;1.50;;
34783;SDS011;20998;51.388;7.032;2024-02-16T12:22:11;2.90;;;1.97;;
34783;SDS011;20998;51.388;7.032;2024-02-16T12:24:45;7.77;;;2.13;;
34783;SDS011;20998;51.388;7.032;2024-02-16T12:27:11;3.17;;;1.77;;
34783;SDS011;20998;51.388;7.032;2024-02-16T12:29:40;3.90;;;1.67;;
34783;SDS011;20998;51.388;7.032;2024-02-16T12:32:06;7.03;;;2.47;;
34783;SDS011;20998;51.388;7.032;2024-02-16T12:34:35;4.73;;;2.30;;
34783;SDS011;20998;51.388;7.032;2024-02-16T12:37:04;12.73;;;2.27;;
34783;SDS011;20998;51.388;7.032;2024-02-16T12:39:32;3.57;;;1.90;;
34783;SDS011;20998;51.388;7.032;2024-02-16T12:41:58;8.60;;;2.13;;
34783;SDS011;20998;51.388;7.032;2024-02-16T12:44:24;4.07;;;1.90;;
34783;SDS011;20998;51.388;7.032;2024-02-16T12:46:50;9.17;;;2.60;;
34783;SDS011;20998;51.388;7.032;2024-02-16T12:49:15;7.20;;;2.30;;
34783;SDS011;20998;51.388;7.032;2024-02-16T12:51:42;5.97;;;1.50;;
34783;SDS011;20998;51.388;7.032;2024-02-16T12:54:08;7.93;;;2.50;;
34783;SDS011;20998;51.388;7.032;2024-02-16T12:56:38;5.47;;;2.37;;
34783;SDS011;20998;51.388;7.032;2024-02-16T12:59:05;8.90;;;2.40;;
34783;SDS011;20998;51.388;7.032;2024-02-16T13:01:31;7.07;;;2.37;;
34783;SDS011;20998;51.388;7.032;2024-02-16T13:03:57;4.37;;;2.07;;
34783;SDS011;20998;51.388;7.032;2024-02-16T13:06:23;4.03;;;2.50;;
34783;SDS011;20998;51.388;7.032;2024-02-16T13:08:49;4.40;;;2.27;;
34783;SDS011;20998;51.388;7.032;2024-02-16T13:11:15;5.60;;;2.33;;
34783;SDS011;20998;51.388;7.032;2024-02-16T13:13:41;4.60;;;2.77;;
34783;SDS011;20998;51.388;7.032;2024-02-16T13:16:07;4.20;;;2.00;;
34783;SDS011;20998;51.388;7.032;2024-02-16T13:18:33;8.77;;;2.13;;
34783;SDS011;20998;51.388;7.032;2024-02-16T13:20:59;3.30;;;1.93;;
34783;SDS011;20998;51.388;7.032;2024-02-16T13:23:25;5.60;;;2.07;;
34783;SDS011;20998;51.388;7.032;2024-02-16T13:25:53;5.20;;;2.33;;
34783;SDS011;20998;51.388;7.032;2024-02-16T13:28:20;3.93;;;2.30;;
34783;SDS011;20998;51.388;7.032;2024-02-16T13:30:46;4.97;;;2.20;;
34783;SDS011;20998;51.388;7.032;2024-02-16T13:33:12;3.87;;;2.47;;
34783;SDS011;20998;51.388;7.032;2024-02-16T13:35:38;7.20;;;4.13;;
34783;SDS011;20998;51.388;7.032;2024-02-16T13:38:04;8.97;;;3.93;;
34783;SDS011;20998;51.388;7.032;2024-02-16T13:40:30;4.00;;;2.47;;
34783;SDS011;20998;51.388;7.032;2024-02-16T13:42:58;6.37;;;3.17;;
34783;SDS011;20998;51.388;7.032;2024-02-16T13:45:30;10.13;;;2.93;;
34783;SDS011;20998;51.388;7.032;2024-02-16T13:48:16;5.20;;;2.60;;
34783;SDS011;20998;51.388;7.032;2024-02-16T13:50:46;3.43;;;1.87;;
34783;SDS011;20998;51.388;7.032;2024-02-16T13:53:13;4.20;;;2.37;;
34783;SDS011;20998;51.388;7.032;2024-02-16T13:55:39;3.67;;;2.67;;
34783;SDS011;20998;51.388;7.032;2024-02-16T13:58:05;3.57;;;2.80;;
34783;SDS011;20998;51.388;7.032;2024-02-16T14:00:31;3.47;;;2.87;;
34783;SDS011;20998;51.388;7.032;2024-02-16T14:02:57;4.70;;;3.13;;
34783;SDS011;20998;51.388;7.032;2024-02-16T14:05:23;4.90;;;2.70;;
34783;SDS011;20998;51.388;7.032;2024-02-16T14:07:51;3.87;;;2.50;;
34783;SDS011;20998;51.388;7.032;2024-02-16T14:10:17;6.47;;;2.70;;
34783;SDS011;20998;51.388;7.032;2024-02-16T14:12:47;3.17;;;2.27;;
34783;SDS011;20998;51.388;7.032;2024-02-16T14:15:12;4.13;;;2.83;;
34783;SDS011;20998;51.388;7.032;2024-02-16T14:17:40;7.90;;;3.10;;
34783;SDS011;20998;51.388;7.032;2024-02-16T14:20:07;6.87;;;3.33;;
34783;SDS011;20998;51.388;7.032;2024-02-16T14:22:32;4.83;;;3.10;;
34783;SDS011;20998;51.388;7.032;2024-02-16T14:24:59;6.90;;;3.83;;
34783;SDS011;20998;51.388;7.032;2024-02-16T14:27:25;6.37;;;3.10;;
34783;SDS011;20998;51.388;7.032;2024-02-16T14:29:51;8.43;;;3.23;;
34783;SDS011;20998;51.388;7.032;2024-02-16T14:32:17;5.33;;;3.57;;
34783;SDS011;20998;51.388;7.032;2024-02-16T14:34:42;7.80;;;3.40;;
34783;SDS011;20998;51.388;7.032;2024-02-16T14:37:09;8.70;;;3.50;;
34783;SDS011;20998;51.388;7.032;2024-02-16T14:39:35;3.73;;;2.77;;
34783;SDS011;20998;51.388;7.032;2024-02-16T14:42:01;9.63;;;3.67;;
34783;SDS011;20998;51.388;7.032;2024-02-16T14:44:27;3.93;;;2.60;;
34783;SDS011;20998;51.388;7.032;2024-02-16T14:46:53;4.83;;;3.10;;
34783;SDS011;20998;51.388;7.032;2024-02-16T14:49:19;5.43;;;3.43;;